sensor_id;sensor_type;location;lat;lon;timestamp;P1;durP1;ratioP1;P2;durP2;ratioP2
74328;SDS011;62745;51.060;13.786;2023-05-19T00:00:30;7.00;;;2.20;;
74328;SDS011;62745;51.060;13.786;2023-05-19T00:02:55;8.32;;;2.50;;
74328;SDS011;62745;51.060;13.786;2023-05-19T00:05:21;6.30;;;2.28;;
74328;SDS011;62745;51.060;13.786;2023-05-19T00:07:46;5.63;;;2.35;;
74328;SDS011;62745;51.060;13.786;2023-05-19T00:10:15;5.22;;;2.53;;
74328;SDS011;62745;51.060;13.786;2023-05-19T00:12:41;6.75;;;2.15;;
74328;SDS011;62745;51.060;13.786;2023-05-19T00:15:07;6.53;;;2.53;;
74328;SDS011;62745;51.060;13.786;2023-05-19T00:17:34;7.78;;;2.40;;
74328;SDS011;62745;51.060;13.786;2023-05-19T00:20:02;7.47;;;2.58;;
74328;SDS011;62745;51.060;13.786;2023-05-19T00:22:31;4.55;;;2.30;;
74328;SDS011;62745;51.060;13.786;2023-05-19T00:24:56;4.57;;;2.05;;
74328;SDS011;62745;51.060;13.786;2023-05-19T00:27:21;5.07;;;2.10;;
74328;SDS011;62745;51.060;13.786;2023-05-19T00:29:47;5.67;;;2.53;;
74328;SDS011;62745;51.060;13.786;2023-05-19T00:32:12;6.00;;;2.60;;
74328;SDS011;62745;51.060;13.786;2023-05-19T00:34:37;5.57;;;2.13;;
74328;SDS011;62745;51.060;13.786;2023-05-19T00:37:02;6.27;;;2.57;;
74328;SDS011;62745;51.060;13.786;2023-05-19T00:39:28;5.07;;;2.53;;
74328;SDS011;62745;51.060;13.786;2023-05-19T00:41:53;5.30;;;2.27;;
74328;SDS011;62745;51.060;13.786;2023-05-19T00:44:18;6.57;;;2.35;;
74328;SDS011;62745;51.060;13.786;2023-05-19T00:46:44;5.70;;;2.50;;
74328;SDS011;62745;51.060;13.786;2023-05-19T00:49:09;6.27;;;2.30;;
74328;SDS011;62745;51.060;13.786;2023-05-19T00:51:34;5.88;;;2.58;;
74328;SDS011;62745;51.060;13.786;2023-05-19T00:54:00;6.22;;;2.20;;
74328;SDS011;62745;51.060;13.786;2023-05-19T00:56:26;8.38;;;2.45;;
74328;SDS011;62745;51.060;13.786;2023-05-19T00:58:51;5.47;;;2.30;;
74328;SDS011;62745;51.060;13.786;2023-05-19T01:01:17;5.93;;;2.35;;
74328;SDS011;62745;51.060;13.786;2023-05-19T01:03:45;6.38;;;2.20;;
74328;SDS011;62745;51.060;13.786;2023-05-19T01:06:11;6.03;;;2.00;;
74328;SDS011;62745;51.060;13.786;2023-05-19T01:08:36;6.07;;;2.55;;
74328;SDS011;62745;51.060;13.786;2023-05-19T01:11:03;4.93;;;2.35;;
74328;SDS011;62745;51.060;13.786;2023-05-19T01:13:29;5.68;;;2.08;;
74328;SDS011;62745;51.060;13.786;2023-05-19T01:16:06;6.05;;;2.22;;
74328;SDS011;62745;51.060;13.786;2023-05-19T01:18:43;5.65;;;2.22;;
74328;SDS011;62745;51.060;13.786;2023-05-19T01:32:06;5.40;;;2.22;;
74328;SDS011;62745;51.060;13.786;2023-05-19T01:34:34;5.22;;;2.40;;
74328;SDS011;62745;51.060;13.786;2023-05-19T01:37:03;4.63;;;2.00;;
74328;SDS011;62745;51.060;13.786;2023-05-19T01:39:29;6.88;;;2.10;;
74328;SDS011;62745;51.060;13.786;2023-05-19T01:41:54;6.28;;;2.00;;
74328;SDS011;62745;51.060;13.786;2023-05-19T01:44:22;6.07;;;2.00;;
74328;SDS011;62745;51.060;13.786;2023-05-19T01:46:48;5.63;;;2.05;;
74328;SDS011;62745;51.060;13.786;2023-05-19T01:49:14;5.78;;;1.92;;
74328;SDS011;62745;51.060;13.786;2023-05-19T01:51:39;6.77;;;2.27;;
74328;SDS011;62745;51.060;13.786;2023-05-19T01:54:05;4.53;;;2.20;;
74328;SDS011;62745;51.060;13.786;2023-05-19T01:56:59;4.30;;;2.00;;
74328;SDS011;62745;51.060;13.786;2023-05-19T01:59:33;6.18;;;2.15;;
74328;SDS011;62745;51.060;13.786;2023-05-19T02:02:10;6.40;;;2.40;;
74328;SDS011;62745;51.060;13.786;2023-05-19T02:04:50;5.35;;;2.22;;
74328;SDS011;62745;51.060;13.786;2023-05-19T02:07:40;4.40;;;1.85;;
74328;SDS011;62745;51.060;13.786;2023-05-19T02:10:09;4.20;;;1.90;;
74328;SDS011;62745;51.060;13.786;2023-05-19T02:12:38;4.90;;;2.15;;
74328;SDS011;62745;51.060;13.786;2023-05-19T02:17:45;6.80;;;2.60;;
74328;SDS011;62745;51.060;13.786;2023-05-19T02:20:14;5.05;;;2.03;;
74328;SDS011;62745;51.060;13.786;2023-05-19T02:22:40;7.05;;;2.42;;
74328;SDS011;62745;51.060;13.786;2023-05-19T02:25:06;5.05;;;2.10;;
74328;SDS011;62745;51.060;13.786;2023-05-19T02:27:33;6.55;;;2.40;;
74328;SDS011;62745;51.060;13.786;2023-05-19T02:30:01;5.43;;;2.17;;
74328;SDS011;62745;51.060;13.786;2023-05-19T02:32:27;4.90;;;2.05;;
74328;SDS011;62745;51.060;13.786;2023-05-19T02:34:52;6.00;;;2.07;;
74328;SDS011;62745;51.060;13.786;2023-05-19T02:37:20;5.05;;;2.25;;
74328;SDS011;62745;51.060;13.786;2023-05-19T02:39:47;5.13;;;2.30;;
74328;SDS011;62745;51.060;13.786;2023-05-19T02:42:13;5.95;;;2.03;;
74328;SDS011;62745;51.060;13.786;2023-05-19T02:44:41;5.57;;;1.95;;
74328;SDS011;62745;51.060;13.786;2023-05-19T02:47:06;5.65;;;2.05;;
74328;SDS011;62745;51.060;13.786;2023-05-19T02:49:32;6.70;;;2.50;;
74328;SDS011;62745;51.060;13.786;2023-05-19T02:51:59;5.75;;;2.28;;
74328;SDS011;62745;51.060;13.786;2023-05-19T02:54:25;4.77;;;2.10;;
74328;SDS011;62745;51.060;13.786;2023-05-19T02:56:50;4.70;;;2.20;;
74328;SDS011;62745;51.060;13.786;2023-05-19T02:59:15;5.35;;;2.03;;
74328;SDS011;62745;51.060;13.786;2023-05-19T03:01:40;4.30;;;2.17;;
74328;SDS011;62745;51.060;13.786;2023-05-19T03:04:06;5.38;;;1.92;;
74328;SDS011;62745;51.060;13.786;2023-05-19T03:06:31;4.20;;;1.87;;
74328;SDS011;62745;51.060;13.786;2023-05-19T03:08:56;4.28;;;1.83;;
74328;SDS011;62745;51.060;13.786;2023-05-19T03:11:22;4.93;;;1.70;;
74328;SDS011;62745;51.060;13.786;2023-05-19T03:13:47;6.67;;;2.00;;
74328;SDS011;62745;51.060;13.786;2023-05-19T03:16:12;5.40;;;1.90;;
74328;SDS011;62745;51.060;13.786;2023-05-19T03:18:38;4.97;;;2.10;;
74328;SDS011;62745;51.060;13.786;2023-05-19T03:21:03;6.03;;;2.30;;
74328;SDS011;62745;51.060;13.786;2023-05-19T03:23:29;8.00;;;2.30;;
74328;SDS011;62745;51.060;13.786;2023-05-19T03:25:55;3.83;;;1.75;;
74328;SDS011;62745;51.060;13.786;2023-05-19T03:28:20;5.40;;;2.07;;
74328;SDS011;62745;51.060;13.786;2023-05-19T03:30:47;5.20;;;1.85;;
74328;SDS011;62745;51.060;13.786;2023-05-19T03:33:14;5.28;;;2.30;;
74328;SDS011;62745;51.060;13.786;2023-05-19T03:35:40;5.28;;;1.98;;
74328;SDS011;62745;51.060;13.786;2023-05-19T03:38:05;4.30;;;1.97;;
74328;SDS011;62745;51.060;13.786;2023-05-19T03:40:30;5.60;;;2.00;;
74328;SDS011;62745;51.060;13.786;2023-05-19T03:42:55;6.00;;;2.33;;
74328;SDS011;62745;51.060;13.786;2023-05-19T03:45:21;4.90;;;2.20;;
74328;SDS011;62745;51.060;13.786;2023-05-19T03:47:46;4.90;;;2.17;;
74328;SDS011;62745;51.060;13.786;2023-05-19T03:50:11;6.40;;;2.10;;
74328;SDS011;62745;51.060;13.786;2023-05-19T03:52:37;6.18;;;2.40;;
74328;SDS011;62745;51.060;13.786;2023-05-19T03:55:04;4.45;;;1.98;;
74328;SDS011;62745;51.060;13.786;2023-05-19T03:57:29;5.05;;;1.77;;
74328;SDS011;62745;51.060;13.786;2023-05-19T03:59:55;8.00;;;2.40;;
74328;SDS011;62745;51.060;13.786;2023-05-19T04:02:20;4.53;;;2.23;;
74328;SDS011;62745;51.060;13.786;2023-05-19T04:04:45;7.17;;;2.70;;
74328;SDS011;62745;51.060;13.786;2023-05-19T04:07:10;4.83;;;2.43;;
74328;SDS011;62745;51.060;13.786;2023-05-19T04:09:36;5.30;;;2.50;;
74328;SDS011;62745;51.060;13.786;2023-05-19T04:12:01;5.25;;;2.63;;
74328;SDS011;62745;51.060;13.786;2023-05-19T04:14:27;4.55;;;2.28;;
74328;SDS011;62745;51.060;13.786;2023-05-19T04:16:52;6.13;;;2.38;;
74328;SDS011;62745;51.060;13.786;2023-05-19T04:19:18;7.75;;;2.67;;
74328;SDS011;62745;51.060;13.786;2023-05-19T04:21:43;7.37;;;2.33;;
74328;SDS011;62745;51.060;13.786;2023-05-19T04:24:08;5.17;;;2.70;;
74328;SDS011;62745;51.060;13.786;2023-05-19T04:26:34;4.73;;;2.53;;
74328;SDS011;62745;51.060;13.786;2023-05-19T04:28:59;5.85;;;2.40;;
74328;SDS011;62745;51.060;13.786;2023-05-19T04:31:28;5.63;;;2.40;;
74328;SDS011;62745;51.060;13.786;2023-05-19T04:33:53;5.80;;;2.53;;
74328;SDS011;62745;51.060;13.786;2023-05-19T04:36:19;5.03;;;2.37;;
74328;SDS011;62745;51.060;13.786;2023-05-19T04:38:45;5.35;;;2.50;;
74328;SDS011;62745;51.060;13.786;2023-05-19T04:41:11;5.10;;;2.55;;
74328;SDS011;62745;51.060;13.786;2023-05-19T04:43:36;6.57;;;2.83;;
74328;SDS011;62745;51.060;13.786;2023-05-19T04:46:06;6.10;;;2.45;;
74328;SDS011;62745;51.060;13.786;2023-05-19T04:48:32;6.25;;;2.40;;
74328;SDS011;62745;51.060;13.786;2023-05-19T04:50:58;5.80;;;2.78;;
74328;SDS011;62745;51.060;13.786;2023-05-19T04:53:25;5.55;;;2.38;;
74328;SDS011;62745;51.060;13.786;2023-05-19T04:55:51;4.57;;;2.40;;
74328;SDS011;62745;51.060;13.786;2023-05-19T04:58:16;4.83;;;2.17;;
74328;SDS011;62745;51.060;13.786;2023-05-19T05:00:42;5.70;;;2.13;;
74328;SDS011;62745;51.060;13.786;2023-05-19T05:03:07;4.33;;;2.07;;
74328;SDS011;62745;51.060;13.786;2023-05-19T05:05:33;5.75;;;2.22;;
74328;SDS011;62745;51.060;13.786;2023-05-19T05:07:59;5.20;;;2.13;;
74328;SDS011;62745;51.060;13.786;2023-05-19T05:10:24;6.27;;;2.43;;
74328;SDS011;62745;51.060;13.786;2023-05-19T05:12:49;6.22;;;2.60;;
74328;SDS011;62745;51.060;13.786;2023-05-19T05:15:15;5.22;;;2.13;;
74328;SDS011;62745;51.060;13.786;2023-05-19T05:17:41;5.75;;;2.28;;
74328;SDS011;62745;51.060;13.786;2023-05-19T05:20:07;4.95;;;2.67;;
74328;SDS011;62745;51.060;13.786;2023-05-19T05:22:33;5.05;;;2.22;;
74328;SDS011;62745;51.060;13.786;2023-05-19T05:24:59;4.55;;;2.20;;
74328;SDS011;62745;51.060;13.786;2023-05-19T05:27:25;5.85;;;2.35;;
74328;SDS011;62745;51.060;13.786;2023-05-19T05:29:51;5.28;;;2.58;;
74328;SDS011;62745;51.060;13.786;2023-05-19T05:32:16;5.95;;;2.58;;
74328;SDS011;62745;51.060;13.786;2023-05-19T05:34:42;7.00;;;2.27;;
74328;SDS011;62745;51.060;13.786;2023-05-19T05:37:07;4.87;;;2.47;;
74328;SDS011;62745;51.060;13.786;2023-05-19T05:39:32;5.95;;;2.50;;
74328;SDS011;62745;51.060;13.786;2023-05-19T05:41:58;5.65;;;2.28;;
74328;SDS011;62745;51.060;13.786;2023-05-19T05:44:23;7.03;;;2.47;;
74328;SDS011;62745;51.060;13.786;2023-05-19T05:46:48;6.60;;;2.80;;
74328;SDS011;62745;51.060;13.786;2023-05-19T05:49:14;5.50;;;2.13;;
74328;SDS011;62745;51.060;13.786;2023-05-19T05:51:39;6.18;;;2.00;;
74328;SDS011;62745;51.060;13.786;2023-05-19T05:54:05;6.40;;;2.60;;
74328;SDS011;62745;51.060;13.786;2023-05-19T05:56:31;6.57;;;2.50;;
74328;SDS011;62745;51.060;13.786;2023-05-19T05:59:01;6.40;;;2.67;;
74328;SDS011;62745;51.060;13.786;2023-05-19T06:01:26;7.20;;;2.40;;
74328;SDS011;62745;51.060;13.786;2023-05-19T06:03:52;5.63;;;2.22;;
74328;SDS011;62745;51.060;13.786;2023-05-19T06:06:17;6.17;;;2.13;;
74328;SDS011;62745;51.060;13.786;2023-05-19T06:08:42;6.18;;;1.92;;
74328;SDS011;62745;51.060;13.786;2023-05-19T06:11:07;8.70;;;2.67;;
74328;SDS011;62745;51.060;13.786;2023-05-19T06:13:34;8.60;;;3.33;;
74328;SDS011;62745;51.060;13.786;2023-05-19T06:15:59;6.22;;;2.20;;
74328;SDS011;62745;51.060;13.786;2023-05-19T06:18:25;5.30;;;2.03;;
74328;SDS011;62745;51.060;13.786;2023-05-19T06:20:50;5.50;;;2.53;;
74328;SDS011;62745;51.060;13.786;2023-05-19T06:23:15;6.20;;;2.20;;
74328;SDS011;62745;51.060;13.786;2023-05-19T06:25:41;4.67;;;1.90;;
74328;SDS011;62745;51.060;13.786;2023-05-19T06:28:06;5.57;;;2.10;;
74328;SDS011;62745;51.060;13.786;2023-05-19T06:30:31;11.70;;;2.50;;
74328;SDS011;62745;51.060;13.786;2023-05-19T06:32:56;6.20;;;2.30;;
74328;SDS011;62745;51.060;13.786;2023-05-19T06:35:22;5.17;;;2.40;;
74328;SDS011;62745;51.060;13.786;2023-05-19T06:37:47;6.10;;;2.10;;
74328;SDS011;62745;51.060;13.786;2023-05-19T06:40:12;5.00;;;1.90;;
74328;SDS011;62745;51.060;13.786;2023-05-19T06:42:37;5.27;;;2.33;;
74328;SDS011;62745;51.060;13.786;2023-05-19T06:45:03;6.60;;;2.67;;
74328;SDS011;62745;51.060;13.786;2023-05-19T06:47:28;8.27;;;3.10;;
74328;SDS011;62745;51.060;13.786;2023-05-19T06:49:54;8.03;;;2.50;;
74328;SDS011;62745;51.060;13.786;2023-05-19T06:52:20;8.40;;;2.70;;
74328;SDS011;62745;51.060;13.786;2023-05-19T06:54:46;7.30;;;2.58;;
74328;SDS011;62745;51.060;13.786;2023-05-19T06:57:12;9.45;;;2.40;;
74328;SDS011;62745;51.060;13.786;2023-05-19T06:59:37;5.60;;;2.77;;
74328;SDS011;62745;51.060;13.786;2023-05-19T07:02:05;6.97;;;3.10;;
74328;SDS011;62745;51.060;13.786;2023-05-19T07:04:31;8.07;;;3.20;;
74328;SDS011;62745;51.060;13.786;2023-05-19T07:06:56;8.77;;;3.53;;
74328;SDS011;62745;51.060;13.786;2023-05-19T07:09:22;7.18;;;3.03;;
74328;SDS011;62745;51.060;13.786;2023-05-19T07:11:47;8.18;;;3.15;;
74328;SDS011;62745;51.060;13.786;2023-05-19T07:14:13;9.60;;;2.88;;
74328;SDS011;62745;51.060;13.786;2023-05-19T07:16:38;5.40;;;2.80;;
74328;SDS011;62745;51.060;13.786;2023-05-19T07:19:03;6.30;;;2.87;;
74328;SDS011;62745;51.060;13.786;2023-05-19T07:21:28;8.43;;;2.90;;
74328;SDS011;62745;51.060;13.786;2023-05-19T07:23:54;7.47;;;2.80;;
74328;SDS011;62745;51.060;13.786;2023-05-19T07:26:19;6.82;;;3.10;;
74328;SDS011;62745;51.060;13.786;2023-05-19T07:28:44;5.53;;;2.50;;
74328;SDS011;62745;51.060;13.786;2023-05-19T07:31:10;6.63;;;2.67;;
74328;SDS011;62745;51.060;13.786;2023-05-19T07:33:35;5.63;;;2.70;;
74328;SDS011;62745;51.060;13.786;2023-05-19T07:36:00;8.30;;;2.70;;
74328;SDS011;62745;51.060;13.786;2023-05-19T07:38:25;4.33;;;2.33;;
74328;SDS011;62745;51.060;13.786;2023-05-19T07:40:52;6.72;;;2.38;;
74328;SDS011;62745;51.060;13.786;2023-05-19T07:43:17;5.37;;;2.30;;
74328;SDS011;62745;51.060;13.786;2023-05-19T07:45:43;6.57;;;2.43;;
74328;SDS011;62745;51.060;13.786;2023-05-19T07:48:08;7.53;;;2.58;;
74328;SDS011;62745;51.060;13.786;2023-05-19T07:50:33;6.20;;;2.15;;
74328;SDS011;62745;51.060;13.786;2023-05-19T07:52:59;5.10;;;2.10;;
74328;SDS011;62745;51.060;13.786;2023-05-19T07:55:24;5.97;;;2.10;;
74328;SDS011;62745;51.060;13.786;2023-05-19T07:57:50;5.90;;;2.03;;
74328;SDS011;62745;51.060;13.786;2023-05-19T08:00:15;11.00;;;3.07;;
74328;SDS011;62745;51.060;13.786;2023-05-19T08:02:41;6.93;;;2.30;;
74328;SDS011;62745;51.060;13.786;2023-05-19T08:05:07;5.07;;;2.13;;
74328;SDS011;62745;51.060;13.786;2023-05-19T08:07:33;14.23;;;2.85;;
74328;SDS011;62745;51.060;13.786;2023-05-19T08:09:59;10.90;;;3.63;;
74328;SDS011;62745;51.060;13.786;2023-05-19T08:12:24;5.13;;;2.42;;
74328;SDS011;62745;51.060;13.786;2023-05-19T08:14:49;9.40;;;2.90;;
74328;SDS011;62745;51.060;13.786;2023-05-19T08:17:15;7.32;;;2.50;;
74328;SDS011;62745;51.060;13.786;2023-05-19T08:19:40;16.10;;;3.00;;
74328;SDS011;62745;51.060;13.786;2023-05-19T08:22:05;13.07;;;2.97;;
74328;SDS011;62745;51.060;13.786;2023-05-19T08:24:30;17.27;;;3.00;;
74328;SDS011;62745;51.060;13.786;2023-05-19T08:26:57;6.07;;;2.40;;
74328;SDS011;62745;51.060;13.786;2023-05-19T08:29:23;9.20;;;2.33;;
74328;SDS011;62745;51.060;13.786;2023-05-19T08:31:48;4.93;;;2.00;;
74328;SDS011;62745;51.060;13.786;2023-05-19T08:34:13;5.93;;;2.40;;
74328;SDS011;62745;51.060;13.786;2023-05-19T08:36:38;8.67;;;2.77;;
74328;SDS011;62745;51.060;13.786;2023-05-19T08:39:04;7.78;;;2.30;;
74328;SDS011;62745;51.060;13.786;2023-05-19T08:41:30;6.80;;;2.45;;
74328;SDS011;62745;51.060;13.786;2023-05-19T08:43:56;6.93;;;2.50;;
74328;SDS011;62745;51.060;13.786;2023-05-19T08:46:21;6.60;;;2.50;;
74328;SDS011;62745;51.060;13.786;2023-05-19T08:48:49;5.82;;;2.45;;
74328;SDS011;62745;51.060;13.786;2023-05-19T08:51:25;5.78;;;2.70;;
74328;SDS011;62745;51.060;13.786;2023-05-19T08:53:59;7.65;;;2.70;;
74328;SDS011;62745;51.060;13.786;2023-05-19T08:56:33;6.15;;;3.00;;
74328;SDS011;62745;51.060;13.786;2023-05-19T08:58:58;4.55;;;2.15;;
74328;SDS011;62745;51.060;13.786;2023-05-19T09:01:24;5.72;;;2.75;;
74328;SDS011;62745;51.060;13.786;2023-05-19T09:03:50;4.90;;;2.35;;
74328;SDS011;62745;51.060;13.786;2023-05-19T09:06:16;6.27;;;2.80;;
74328;SDS011;62745;51.060;13.786;2023-05-19T09:08:41;7.00;;;2.70;;
74328;SDS011;62745;51.060;13.786;2023-05-19T09:11:08;6.53;;;2.35;;
74328;SDS011;62745;51.060;13.786;2023-05-19T09:13:34;5.40;;;2.30;;
74328;SDS011;62745;51.060;13.786;2023-05-19T09:15:59;7.03;;;2.10;;
74328;SDS011;62745;51.060;13.786;2023-05-19T09:18:25;6.80;;;1.63;;
74328;SDS011;62745;51.060;13.786;2023-05-19T09:20:55;5.15;;;2.20;;
74328;SDS011;62745;51.060;13.786;2023-05-19T09:23:25;6.32;;;2.30;;
74328;SDS011;62745;51.060;13.786;2023-05-19T09:25:56;4.72;;;1.90;;
74328;SDS011;62745;51.060;13.786;2023-05-19T09:28:31;5.35;;;1.80;;
74328;SDS011;62745;51.060;13.786;2023-05-19T09:33:25;4.32;;;1.75;;
74328;SDS011;62745;51.060;13.786;2023-05-19T09:35:50;5.47;;;2.20;;
74328;SDS011;62745;51.060;13.786;2023-05-19T09:38:18;6.00;;;2.10;;
74328;SDS011;62745;51.060;13.786;2023-05-19T09:40:44;5.05;;;1.98;;
74328;SDS011;62745;51.060;13.786;2023-05-19T09:43:09;3.95;;;1.75;;
74328;SDS011;62745;51.060;13.786;2023-05-19T09:45:34;5.93;;;2.25;;
74328;SDS011;62745;51.060;13.786;2023-05-19T09:48:02;4.03;;;1.90;;
74328;SDS011;62745;51.060;13.786;2023-05-19T09:50:28;4.97;;;2.30;;
74328;SDS011;62745;51.060;13.786;2023-05-19T09:52:54;6.03;;;1.90;;
74328;SDS011;62745;51.060;13.786;2023-05-19T09:55:20;6.57;;;2.30;;
74328;SDS011;62745;51.060;13.786;2023-05-19T09:57:49;6.80;;;2.30;;
74328;SDS011;62745;51.060;13.786;2023-05-19T10:00:16;6.63;;;2.65;;
74328;SDS011;62745;51.060;13.786;2023-05-19T10:02:43;5.88;;;2.25;;
74328;SDS011;62745;51.060;13.786;2023-05-19T10:05:09;5.53;;;2.15;;
74328;SDS011;62745;51.060;13.786;2023-05-19T10:07:37;7.88;;;2.30;;
74328;SDS011;62745;51.060;13.786;2023-05-19T10:10:04;5.38;;;2.08;;
74328;SDS011;62745;51.060;13.786;2023-05-19T10:12:33;5.47;;;2.75;;
74328;SDS011;62745;51.060;13.786;2023-05-19T10:14:58;8.18;;;2.92;;
74328;SDS011;62745;51.060;13.786;2023-05-19T10:17:24;6.00;;;2.22;;
74328;SDS011;62745;51.060;13.786;2023-05-19T10:19:50;7.55;;;2.50;;
74328;SDS011;62745;51.060;13.786;2023-05-19T10:22:17;5.60;;;2.10;;
74328;SDS011;62745;51.060;13.786;2023-05-19T10:24:42;6.13;;;2.40;;
74328;SDS011;62745;51.060;13.786;2023-05-19T10:27:09;5.30;;;1.90;;
74328;SDS011;62745;51.060;13.786;2023-05-19T10:29:38;5.65;;;2.13;;
74328;SDS011;62745;51.060;13.786;2023-05-19T10:32:08;6.70;;;2.45;;
74328;SDS011;62745;51.060;13.786;2023-05-19T10:43:01;5.10;;;2.20;;
74328;SDS011;62745;51.060;13.786;2023-05-19T10:45:40;5.25;;;1.83;;
74328;SDS011;62745;51.060;13.786;2023-05-19T10:48:15;5.50;;;2.00;;
74328;SDS011;62745;51.060;13.786;2023-05-19T10:50:44;7.15;;;2.30;;
74328;SDS011;62745;51.060;13.786;2023-05-19T10:53:16;4.25;;;2.05;;
74328;SDS011;62745;51.060;13.786;2023-05-19T10:55:54;5.22;;;2.22;;
74328;SDS011;62745;51.060;13.786;2023-05-19T11:01:00;6.30;;;1.83;;
74328;SDS011;62745;51.060;13.786;2023-05-19T11:03:25;6.47;;;2.20;;
74328;SDS011;62745;51.060;13.786;2023-05-19T11:05:56;5.95;;;1.83;;
74328;SDS011;62745;51.060;13.786;2023-05-19T11:11:47;4.22;;;1.70;;
74328;SDS011;62745;51.060;13.786;2023-05-19T11:14:15;7.07;;;2.15;;
74328;SDS011;62745;51.060;13.786;2023-05-19T11:16:44;5.78;;;1.95;;
74328;SDS011;62745;51.060;13.786;2023-05-19T11:22:09;7.32;;;2.00;;
74328;SDS011;62745;51.060;13.786;2023-05-19T11:24:45;6.85;;;2.30;;
74328;SDS011;62745;51.060;13.786;2023-05-19T11:29:52;5.28;;;1.77;;
74328;SDS011;62745;51.060;13.786;2023-05-19T11:32:19;4.32;;;1.88;;
74328;SDS011;62745;51.060;13.786;2023-05-19T11:34:46;5.35;;;2.10;;
74328;SDS011;62745;51.060;13.786;2023-05-19T11:37:13;5.47;;;2.10;;
74328;SDS011;62745;51.060;13.786;2023-05-19T11:39:39;5.30;;;1.97;;
74328;SDS011;62745;51.060;13.786;2023-05-19T11:42:05;6.97;;;1.83;;
74328;SDS011;62745;51.060;13.786;2023-05-19T11:44:32;3.92;;;1.90;;
74328;SDS011;62745;51.060;13.786;2023-05-19T11:46:57;5.73;;;2.20;;
74328;SDS011;62745;51.060;13.786;2023-05-19T11:49:24;4.05;;;1.88;;
74328;SDS011;62745;51.060;13.786;2023-05-19T11:51:49;5.10;;;2.20;;
74328;SDS011;62745;51.060;13.786;2023-05-19T11:54:14;4.93;;;2.03;;
74328;SDS011;62745;51.060;13.786;2023-05-19T11:56:40;5.05;;;2.63;;
74328;SDS011;62745;51.060;13.786;2023-05-19T11:59:07;6.78;;;1.98;;
74328;SDS011;62745;51.060;13.786;2023-05-19T12:01:33;5.72;;;1.92;;
74328;SDS011;62745;51.060;13.786;2023-05-19T12:03:59;4.88;;;1.83;;
74328;SDS011;62745;51.060;13.786;2023-05-19T12:06:25;4.80;;;2.15;;
74328;SDS011;62745;51.060;13.786;2023-05-19T12:08:51;3.72;;;1.80;;
74328;SDS011;62745;51.060;13.786;2023-05-19T12:11:18;4.88;;;1.88;;
74328;SDS011;62745;51.060;13.786;2023-05-19T12:13:43;3.80;;;1.80;;
74328;SDS011;62745;51.060;13.786;2023-05-19T12:16:09;5.15;;;1.98;;
74328;SDS011;62745;51.060;13.786;2023-05-19T12:18:35;4.72;;;2.20;;
74328;SDS011;62745;51.060;13.786;2023-05-19T12:21:01;6.03;;;2.10;;
74328;SDS011;62745;51.060;13.786;2023-05-19T12:23:27;5.20;;;2.50;;
74328;SDS011;62745;51.060;13.786;2023-05-19T12:25:54;5.32;;;2.13;;
74328;SDS011;62745;51.060;13.786;2023-05-19T12:28:21;4.85;;;2.15;;
74328;SDS011;62745;51.060;13.786;2023-05-19T12:30:48;5.95;;;2.10;;
74328;SDS011;62745;51.060;13.786;2023-05-19T12:33:16;6.15;;;2.20;;
74328;SDS011;62745;51.060;13.786;2023-05-19T12:35:44;6.50;;;2.55;;
74328;SDS011;62745;51.060;13.786;2023-05-19T12:38:12;5.88;;;2.22;;
74328;SDS011;62745;51.060;13.786;2023-05-19T12:40:38;5.38;;;2.30;;
74328;SDS011;62745;51.060;13.786;2023-05-19T12:43:03;6.50;;;2.63;;
74328;SDS011;62745;51.060;13.786;2023-05-19T12:45:32;9.05;;;2.40;;
74328;SDS011;62745;51.060;13.786;2023-05-19T12:48:01;11.65;;;2.70;;
74328;SDS011;62745;51.060;13.786;2023-05-19T12:50:29;6.50;;;2.45;;
74328;SDS011;62745;51.060;13.786;2023-05-19T12:52:55;7.72;;;2.58;;
74328;SDS011;62745;51.060;13.786;2023-05-19T12:55:21;6.82;;;2.22;;
74328;SDS011;62745;51.060;13.786;2023-05-19T12:57:47;5.13;;;2.30;;
74328;SDS011;62745;51.060;13.786;2023-05-19T13:00:19;6.00;;;2.42;;
74328;SDS011;62745;51.060;13.786;2023-05-19T13:10:26;7.80;;;3.20;;
74328;SDS011;62745;51.060;13.786;2023-05-19T13:12:53;5.53;;;2.58;;
74328;SDS011;62745;51.060;13.786;2023-05-19T13:15:20;5.40;;;2.63;;
74328;SDS011;62745;51.060;13.786;2023-05-19T13:17:48;6.57;;;2.58;;
74328;SDS011;62745;51.060;13.786;2023-05-19T13:20:13;7.30;;;2.67;;
74328;SDS011;62745;51.060;13.786;2023-05-19T13:22:38;7.82;;;2.38;;
74328;SDS011;62745;51.060;13.786;2023-05-19T13:25:04;6.70;;;2.50;;
74328;SDS011;62745;51.060;13.786;2023-05-19T13:27:30;5.55;;;2.58;;
74328;SDS011;62745;51.060;13.786;2023-05-19T13:29:55;6.50;;;2.63;;
74328;SDS011;62745;51.060;13.786;2023-05-19T13:32:20;7.05;;;2.55;;
74328;SDS011;62745;51.060;13.786;2023-05-19T13:34:46;5.97;;;2.93;;
74328;SDS011;62745;51.060;13.786;2023-05-19T13:37:11;6.68;;;3.05;;
74328;SDS011;62745;51.060;13.786;2023-05-19T13:39:36;7.15;;;2.78;;
74328;SDS011;62745;51.060;13.786;2023-05-19T13:42:02;6.13;;;3.08;;
74328;SDS011;62745;51.060;13.786;2023-05-19T13:44:28;6.65;;;3.00;;
74328;SDS011;62745;51.060;13.786;2023-05-19T13:46:54;6.90;;;3.10;;
74328;SDS011;62745;51.060;13.786;2023-05-19T13:49:19;6.65;;;2.95;;
74328;SDS011;62745;51.060;13.786;2023-05-19T13:51:45;7.15;;;2.70;;
74328;SDS011;62745;51.060;13.786;2023-05-19T13:54:10;6.10;;;2.73;;
74328;SDS011;62745;51.060;13.786;2023-05-19T13:56:35;5.50;;;2.92;;
74328;SDS011;62745;51.060;13.786;2023-05-19T13:59:01;6.38;;;2.80;;
74328;SDS011;62745;51.060;13.786;2023-05-19T14:01:27;6.50;;;2.63;;
74328;SDS011;62745;51.060;13.786;2023-05-19T14:03:53;6.35;;;2.80;;
74328;SDS011;62745;51.060;13.786;2023-05-19T14:06:18;5.83;;;2.67;;
74328;SDS011;62745;51.060;13.786;2023-05-19T14:08:44;4.57;;;2.93;;
74328;SDS011;62745;51.060;13.786;2023-05-19T14:11:09;7.57;;;3.70;;
74328;SDS011;62745;51.060;13.786;2023-05-19T14:13:42;6.13;;;3.10;;
74328;SDS011;62745;51.060;13.786;2023-05-19T14:16:07;5.60;;;2.97;;
74328;SDS011;62745;51.060;13.786;2023-05-19T14:18:32;5.10;;;2.83;;
74328;SDS011;62745;51.060;13.786;2023-05-19T14:20:58;4.68;;;2.75;;
74328;SDS011;62745;51.060;13.786;2023-05-19T14:23:23;5.90;;;3.28;;
74328;SDS011;62745;51.060;13.786;2023-05-19T14:25:48;5.80;;;3.20;;
74328;SDS011;62745;51.060;13.786;2023-05-19T14:28:14;6.97;;;3.60;;
74328;SDS011;62745;51.060;13.786;2023-05-19T14:30:39;10.10;;;3.20;;
74328;SDS011;62745;51.060;13.786;2023-05-19T14:33:05;6.53;;;3.28;;
74328;SDS011;62745;51.060;13.786;2023-05-19T14:35:30;5.10;;;3.00;;
74328;SDS011;62745;51.060;13.786;2023-05-19T14:37:56;4.87;;;2.80;;
74328;SDS011;62745;51.060;13.786;2023-05-19T14:40:21;5.20;;;2.70;;
74328;SDS011;62745;51.060;13.786;2023-05-19T14:42:46;5.13;;;2.93;;
74328;SDS011;62745;51.060;13.786;2023-05-19T14:45:11;5.97;;;3.03;;
74328;SDS011;62745;51.060;13.786;2023-05-19T14:47:37;6.20;;;3.35;;
74328;SDS011;62745;51.060;13.786;2023-05-19T14:50:02;5.82;;;2.90;;
74328;SDS011;62745;51.060;13.786;2023-05-19T14:52:28;5.57;;;2.65;;
74328;SDS011;62745;51.060;13.786;2023-05-19T14:54:53;6.78;;;3.28;;
74328;SDS011;62745;51.060;13.786;2023-05-19T14:57:19;6.00;;;3.08;;
74328;SDS011;62745;51.060;13.786;2023-05-19T14:59:45;6.13;;;2.87;;
74328;SDS011;62745;51.060;13.786;2023-05-19T15:02:10;6.97;;;3.00;;
74328;SDS011;62745;51.060;13.786;2023-05-19T15:04:36;9.65;;;3.05;;
74328;SDS011;62745;51.060;13.786;2023-05-19T15:07:01;6.00;;;2.70;;
74328;SDS011;62745;51.060;13.786;2023-05-19T15:09:27;5.63;;;3.03;;
74328;SDS011;62745;51.060;13.786;2023-05-19T15:11:52;5.45;;;3.05;;